Time;durP1;ratioP1;P1;durP2;ratioP2;P2;SDS_P1;SDS_P2;PMS_P1;PMS_P2;Temp;Humidity;BMP_temperature;BMP_pressure;BME280_temperature;BME280_humidity;BME280_pressure;Samples;Min_cycle;Max_cycle;Signal;HPM_P1;HPM_P2
2023/08/29 00:04:03;;;;;;;5.05;4.53;;;14.40;99.90;;;;;;10088881;29;20391;-88
2023/08/29 00:09:05;;;;;;;4.57;4.13;;;14.40;99.90;;;;;;10089374;29;20663;-88
2023/08/29 00:14:08;;;;;;;4.47;3.92;;;14.40;99.90;;;;;;10111522;29;20240;-88
2023/08/29 00:19:10;;;;;;;5.28;4.50;;;14.40;99.90;;;;;;10134655;29;20243;-88
2023/08/29 00:24:14;;;;;;;4.40;4.00;;;14.40;99.90;;;;;;10134559;29;20303;-88
2023/08/29 00:29:16;;;;;;;4.70;3.72;;;14.30;99.90;;;;;;10134566;29;20733;-88
2023/08/29 00:34:18;;;;;;;6.15;4.05;;;14.30;99.90;;;;;;10131712;29;20649;-88
2023/08/29 00:39:24;;;;;;;6.65;3.50;;;14.30;99.90;;;;;;10117115;29;20272;-88
2023/08/29 00:44:27;;;;;;;4.40;2.88;;;14.30;99.90;;;;;;10133814;29;20267;-88
2023/08/29 00:49:30;;;;;;;4.35;3.42;;;14.40;99.90;;;;;;10116047;29;20315;-88
2023/08/29 00:54:33;;;;;;;3.53;3.30;;;14.40;99.90;;;;;;10117337;29;20235;-88
2023/08/29 00:59:36;;;;;;;3.55;3.25;;;14.40;99.90;;;;;;10132644;29;20255;-89
2023/08/29 01:04:38;;;;;;;3.38;3.08;;;14.40;99.90;;;;;;10116729;29;20338;-88
2023/08/29 01:09:41;;;;;;;6.22;3.65;;;14.40;99.90;;;;;;10132482;29;20239;-88
2023/08/29 01:15:10;;;;;;;4.85;3.15;;;14.40;99.90;;;;;;10116389;29;20708;-88
2023/08/29 01:20:14;;;;;;;3.10;2.80;;;14.40;99.90;;;;;;10131477;29;20303;-88
2023/08/29 01:25:51;;;;;;;3.13;2.83;;;14.50;99.90;;;;;;10132155;29;20681;-89
2023/08/29 01:30:53;;;;;;;2.72;2.50;;;14.50;99.90;;;;;;10156707;29;20284;-89
2023/08/29 01:35:56;;;;;;;3.17;2.65;;;14.50;99.90;;;;;;10137629;29;20272;-88
2023/08/29 01:40:58;;;;;;;2.70;2.50;;;14.60;99.90;;;;;;10114654;29;20713;-88
2023/08/29 01:46:01;;;;;;;2.10;2.00;;;14.50;99.90;;;;;;10128880;29;20263;-88
2023/08/29 01:51:04;;;;;;;4.82;2.25;;;14.50;99.90;;;;;;10130771;29;20208;-88
2023/08/29 01:56:10;;;;;;;2.70;2.50;;;14.60;99.90;;;;;;10129768;29;20760;-88
2023/08/29 02:01:13;;;;;;;2.83;2.55;;;14.60;99.90;;;;;;10114272;29;20268;-87
2023/08/29 02:06:24;;;;;;;2.80;2.50;;;14.50;99.90;;;;;;10131578;29;20264;-87
2023/08/29 02:11:27;;;;;;;4.28;3.00;;;14.40;99.90;;;;;;10099110;29;20236;-87
2023/08/29 02:16:33;;;;;;;6.60;3.92;;;14.40;99.90;;;;;;10112500;29;20255;-87
2023/08/29 02:21:35;;;;;;;3.67;2.72;;;14.40;99.90;;;;;;10112676;29;20301;-88
2023/08/29 02:26:38;;;;;;;4.32;2.50;;;14.40;99.90;;;;;;10129863;29;20267;-88
2023/08/29 02:31:40;;;;;;;4.05;2.75;;;14.30;99.90;;;;;;10112768;29;20277;-87
2023/08/29 02:36:43;;;;;;;3.55;2.97;;;14.30;99.90;;;;;;10129799;29;20247;-87
2023/08/29 02:41:45;;;;;;;3.75;2.88;;;14.20;99.90;;;;;;10111226;29;20330;-88
2023/08/29 02:46:48;;;;;;;4.68;3.20;;;14.30;99.90;;;;;;10129587;29;20255;-88
2023/08/29 02:51:50;;;;;;;4.35;3.20;;;14.30;99.90;;;;;;10112372;29;20296;-87
2023/08/29 02:56:53;;;;;;;5.82;3.15;;;14.30;99.90;;;;;;10111535;29;20240;-87
2023/08/29 03:01:56;;;;;;;3.42;2.80;;;14.30;99.90;;;;;;10129200;29;20232;-87
2023/08/29 03:06:58;;;;;;;3.75;3.00;;;14.40;99.90;;;;;;10128418;29;20664;-87
2023/08/29 03:12:02;;;;;;;5.70;2.92;;;14.30;99.90;;;;;;10111744;29;20311;-87
2023/08/29 03:17:06;;;;;;;2.85;2.60;;;14.20;99.90;;;;;;10111122;29;20263;-87
2023/08/29 03:22:08;;;;;;;3.40;3.17;;;14.20;99.90;;;;;;10129136;29;20743;-87
2023/08/29 03:27:11;;;;;;;3.67;3.30;;;14.20;99.90;;;;;;10110312;29;20724;-87
2023/08/29 03:32:14;;;;;;;4.45;3.83;;;14.20;99.90;;;;;;10111609;29;20232;-88
2023/08/29 03:37:16;;;;;;;5.13;3.97;;;14.20;99.90;;;;;;10127371;29;20624;-87
2023/08/29 03:42:19;;;;;;;4.05;3.75;;;14.20;99.90;;;;;;10109522;29;20726;-87
2023/08/29 03:47:22;;;;;;;4.78;3.55;;;14.20;99.90;;;;;;10111422;29;20259;-87
2023/08/29 03:52:29;;;;;;;4.10;3.75;;;14.20;99.90;;;;;;10115115;29;20227;-86
2023/08/29 03:57:32;;;;;;;4.05;3.70;;;14.20;99.90;;;;;;10136284;29;20239;-87
2023/08/29 04:02:34;;;;;;;4.35;4.00;;;14.20;99.90;;;;;;10135103;29;20244;-87
2023/08/29 04:07:37;;;;;;;4.03;3.72;;;14.20;99.90;;;;;;10118480;29;20306;-87
2023/08/29 04:12:40;;;;;;;3.40;3.10;;;14.10;99.90;;;;;;10133384;29;20244;-87
2023/08/29 04:17:43;;;;;;;3.53;3.22;;;14.00;99.90;;;;;;10117047;29;20212;-87
2023/08/29 04:22:45;;;;;;;4.60;3.45;;;14.00;99.90;;;;;;10132777;29;20240;-87
2023/08/29 04:27:50;;;;;;;3.90;3.47;;;13.90;99.90;;;;;;10117859;29;20264;-88
2023/08/29 04:32:52;;;;;;;3.70;3.28;;;13.90;99.90;;;;;;10132018;29;20722;-87
2023/08/29 04:37:55;;;;;;;3.15;2.90;;;13.90;99.90;;;;;;10117948;29;20251;-87
2023/08/29 04:42:58;;;;;;;3.10;2.80;;;13.90;99.90;;;;;;10116787;29;20743;-87
2023/08/29 04:48:01;;;;;;;2.67;2.38;;;14.00;99.90;;;;;;10114689;29;20256;-87
2023/08/29 04:53:04;;;;;;;2.97;2.67;;;14.10;99.90;;;;;;10133408;29;20311;-87
2023/08/29 04:58:07;;;;;;;3.03;2.65;;;14.20;99.90;;;;;;10116569;29;20239;-87
2023/08/29 05:03:10;;;;;;;2.75;2.45;;;14.30;99.90;;;;;;10128678;29;20657;-85
2023/08/29 05:08:12;;;;;;;2.72;2.53;;;14.30;99.90;;;;;;10131020;29;20282;-86
2023/08/29 05:13:15;;;;;;;3.13;2.83;;;14.40;99.90;;;;;;10112461;29;20231;-86
2023/08/29 05:18:18;;;;;;;3.13;2.40;;;14.60;99.90;;;;;;10115691;29;20263;-86
2023/08/29 05:23:20;;;;;;;3.38;2.85;;;14.60;99.90;;;;;;10130895;29;20295;-86
2023/08/29 05:28:23;;;;;;;2.60;2.40;;;14.60;99.90;;;;;;10132594;29;20251;-86
2023/08/29 05:33:25;;;;;;;3.03;2.67;;;14.70;99.90;;;;;;10119246;29;20691;-86
2023/08/29 05:38:28;;;;;;;2.90;2.55;;;14.80;99.90;;;;;;10098517;29;20297;-86
2023/08/29 05:43:30;;;;;;;2.97;2.50;;;14.90;99.90;;;;;;10112448;29;20300;-86
2023/08/29 05:48:33;;;;;;;2.75;2.20;;;14.90;99.90;;;;;;10114388;29;20247;-86
2023/08/29 05:53:35;;;;;;;3.15;2.35;;;15.00;99.90;;;;;;10113140;29;20301;-87
2023/08/29 05:58:38;;;;;;;2.55;2.03;;;15.20;99.90;;;;;;10112152;29;20255;-86
2023/08/29 06:03:41;;;;;;;2.22;2.05;;;15.60;99.90;;;;;;10116790;29;20272;-86
2023/08/29 06:08:44;;;;;;;2.80;2.25;;;15.90;99.90;;;;;;10092510;29;20308;-86
2023/08/29 06:13:47;;;;;;;2.45;2.25;;;15.90;99.90;;;;;;10111136;29;20228;-86
2023/08/29 06:18:49;;;;;;;3.08;2.75;;;16.00;99.90;;;;;;10116228;29;20304;-87
2023/08/29 06:23:52;;;;;;;2.45;2.25;;;16.00;99.90;;;;;;10110910;29;20682;-86
2023/08/29 06:28:54;;;;;;;3.42;3.13;;;16.00;99.90;;;;;;10119910;29;20674;-86
2023/08/29 06:33:57;;;;;;;2.63;2.40;;;16.10;99.90;;;;;;10129369;29;20303;-86
2023/08/29 06:39:00;;;;;;;4.43;3.10;;;15.90;99.90;;;;;;10128443;29;20358;-86
2023/08/29 06:44:03;;;;;;;4.70;2.83;;;15.90;99.90;;;;;;10125280;29;20331;-86
2023/08/29 06:49:07;;;;;;;5.72;3.80;;;15.90;99.90;;;;;;10128931;29;20311;-86
2023/08/29 06:54:10;;;;;;;4.32;3.70;;;15.80;99.90;;;;;;10128215;29;20299;-86
2023/08/29 06:59:12;;;;;;;4.28;3.78;;;15.80;99.90;;;;;;10128227;29;20307;-84
2023/08/29 07:04:15;;;;;;;4.20;3.80;;;15.90;99.90;;;;;;10128009;29;20310;-84
2023/08/29 07:09:17;;;;;;;5.13;3.72;;;15.90;99.90;;;;;;10128517;29;20263;-84
2023/08/29 07:14:19;;;;;;;4.20;3.80;;;15.90;99.90;;;;;;10125665;29;20268;-83
2023/08/29 07:19:22;;;;;;;4.80;4.05;;;15.90;99.90;;;;;;10124771;29;20236;-84
2023/08/29 07:24:25;;;;;;;5.75;4.00;;;15.80;99.90;;;;;;10124672;29;20646;-84
2023/08/29 07:29:27;;;;;;;4.88;4.28;;;15.80;99.90;;;;;;10109191;29;20263;-83
2023/08/29 07:34:30;;;;;;;4.22;3.83;;;15.80;99.90;;;;;;10110727;29;20774;-83
2023/08/29 07:39:32;;;;;;;3.90;3.50;;;15.90;99.90;;;;;;10127841;29;20725;-85
2023/08/29 07:44:35;;;;;;;3.80;3.47;;;15.90;99.90;;;;;;10126653;29;20790;-87
2023/08/29 07:49:37;;;;;;;5.10;3.28;;;15.90;99.90;;;;;;10126189;29;20259;-88
2023/08/29 07:54:41;;;;;;;4.65;3.17;;;15.90;99.90;;;;;;10125759;29;20232;-86
2023/08/29 07:59:44;;;;;;;3.83;2.90;;;16.00;99.90;;;;;;10109393;29;20935;-86
2023/08/29 08:04:47;;;;;;;5.78;3.97;;;16.20;99.90;;;;;;10109430;29;20347;-87
2023/08/29 08:09:49;;;;;;;6.90;2.63;;;16.20;99.90;;;;;;10107409;29;20284;-87
2023/08/29 08:14:53;;;;;;;2.72;2.47;;;16.30;99.90;;;;;;10122941;29;20295;-87
2023/08/29 08:19:55;;;;;;;5.68;2.90;;;16.40;99.90;;;;;;10124512;29;20244;-87
2023/08/29 08:24:58;;;;;;;4.40;2.90;;;16.40;99.90;;;;;;10108212;29;20247;-87
2023/08/29 08:30:01;;;;;;;3.15;2.47;;;16.40;99.90;;;;;;10126425;29;20264;-86
2023/08/29 08:35:07;;;;;;;5.20;3.10;;;16.40;99.90;;;;;;10125701;29;20304;-88
2023/08/29 08:40:11;;;;;;;4.70;2.47;;;16.50;99.90;;;;;;10115088;29;20649;-87
2023/08/29 08:45:14;;;;;;;5.65;2.83;;;16.70;99.90;;;;;;10115099;29;20240;-87
2023/08/29 08:50:17;;;;;;;4.82;2.80;;;16.60;99.90;;;;;;10133269;29;20255;-87
2023/08/29 08:55:20;;;;;;;4.38;2.58;;;16.70;99.90;;;;;;10133198;29;20704;-86
2023/08/29 09:00:22;;;;;;;6.25;3.55;;;16.70;99.90;;;;;;10130677;29;20287;-86
2023/08/29 09:05:25;;;;;;;7.10;3.25;;;16.80;99.90;;;;;;10132721;29;20236;-88
2023/08/29 09:10:32;;;;;;;2.92;2.50;;;16.80;99.90;;;;;;10131134;29;20248;-88
2023/08/29 09:15:34;;;;;;;5.50;3.25;;;16.80;99.90;;;;;;10132389;29;20235;-88
2023/08/29 09:20:37;;;;;;;3.30;3.00;;;16.80;99.90;;;;;;10130859;29;20239;-88
2023/08/29 09:25:41;;;;;;;5.35;2.78;;;16.90;99.90;;;;;;10131296;29;20268;-88
2023/08/29 09:30:43;;;;;;;5.32;3.25;;;17.00;99.90;;;;;;10130555;29;20267;-87
2023/08/29 09:35:46;;;;;;;7.18;3.58;;;17.00;99.90;;;;;;10112258;29;20235;-86
2023/08/29 09:40:51;;;;;;;5.47;3.55;;;17.00;99.90;;;;;;10130296;29;20793;-88
2023/08/29 09:45:55;;;;;;;12.30;4.00;;;17.00;99.90;;;;;;10129440;29;20727;-88
2023/08/29 09:50:59;;;;;;;4.97;3.72;;;17.00;99.90;;;;;;10130496;29;20232;-87
2023/08/29 09:56:10;;;;;;;8.23;4.60;;;16.90;99.90;;;;;;10130513;29;20288;-88
2023/08/29 10:01:14;;;;;;;8.90;5.25;;;16.90;99.90;;;;;;10125370;29;20291;-88
2023/08/29 10:06:19;;;;;;;8.48;4.90;;;16.90;99.90;;;;;;10130258;29;20244;-90
2023/08/29 10:11:24;;;;;;;6.93;4.75;;;16.90;99.90;;;;;;10130319;29;20264;-89
2023/08/29 10:16:29;;;;;;;7.53;4.88;;;16.90;99.90;;;;;;10128067;29;20264;-89
2023/08/29 10:21:31;;;;;;;5.45;4.78;;;17.00;99.90;;;;;;10129275;29;20244;-87
2023/08/29 10:26:36;;;;;;;10.93;6.35;;;17.00;99.90;;;;;;10129222;29;20247;-87
2023/08/29 10:31:39;;;;;;;7.07;5.13;;;17.10;99.90;;;;;;10129440;29;20239;-87
2023/08/29 10:36:45;;;;;;;7.53;5.30;;;17.10;99.90;;;;;;10097563;29;20239;-86
2023/08/29 10:41:52;;;;;;;8.52;5.03;;;17.10;99.90;;;;;;10112397;29;20275;-86
2023/08/29 10:47:16;;;;;;;5.53;4.78;;;17.20;99.90;;;;;;10129821;29;20315;-86
2023/08/29 10:52:20;;;;;;;8.50;4.63;;;17.30;99.90;;;;;;10128852;29;20224;-88
2023/08/29 10:57:29;;;;;;;5.68;4.95;;;17.40;99.90;;;;;;10129555;29;20240;-90
2023/08/29 11:02:32;;;;;;;5.80;4.78;;;17.50;99.90;;;;;;10126819;29;20681;-90
2023/08/29 11:07:34;;;;;;;10.18;6.47;;;17.60;99.90;;;;;;10129095;29;20259;-89
2023/08/29 11:13:11;;;;;;;9.82;4.78;;;17.70;99.90;;;;;;10121950;29;20299;-87
2023/08/29 11:18:21;;;;;;;13.50;5.05;;;17.70;99.90;;;;;;10107536;29;20244;-88
2023/08/29 11:23:24;;;;;;;6.15;4.45;;;17.70;99.90;;;;;;10107778;29;20233;-87
2023/08/29 11:28:27;;;;;;;4.55;4.15;;;17.80;99.90;;;;;;10103685;29;20276;-87
2023/08/29 11:33:32;;;;;;;4.95;3.92;;;17.90;99.90;;;;;;10106872;29;20930;-87
2023/08/29 11:38:34;;;;;;;4.65;4.00;;;17.90;99.90;;;;;;10100026;29;20767;-86
2023/08/29 11:43:37;;;;;;;6.13;3.58;;;17.90;99.90;;;;;;10124662;29;20264;-86
2023/08/29 11:49:00;;;;;;;5.15;4.10;;;18.00;99.90;;;;;;10127612;29;20993;-86
2023/08/29 11:54:04;;;;;;;4.35;3.95;;;18.00;99.90;;;;;;10126361;29;20731;-89
2023/08/29 11:59:06;;;;;;;7.57;4.47;;;17.90;99.90;;;;;;10125953;29;20707;-88
2023/08/29 12:04:10;;;;;;;5.63;4.20;;;17.90;99.90;;;;;;10127011;29;20271;-88
2023/08/29 12:09:21;;;;;;;4.50;4.10;;;17.90;99.90;;;;;;10125703;29;20876;-88
2023/08/29 12:14:24;;;;;;;5.47;3.72;;;17.90;99.90;;;;;;10134342;29;20617;-88
2023/08/29 12:19:34;;;;;;;4.50;3.75;;;17.90;99.90;;;;;;10133871;29;20260;-87
2023/08/29 12:24:37;;;;;;;4.05;3.40;;;17.70;99.90;;;;;;10132157;29;20264;-88
2023/08/29 12:29:41;;;;;;;4.50;4.10;;;17.70;99.90;;;;;;10132353;29;20763;-87
2023/08/29 12:34:44;;;;;;;5.20;4.18;;;17.80;99.90;;;;;;10118240;29;20268;-88
2023/08/29 12:39:47;;;;;;;4.63;3.80;;;17.90;99.90;;;;;;10133278;29;20315;-88
2023/08/29 12:44:51;;;;;;;5.30;4.05;;;17.90;99.90;;;;;;10115808;29;20248;-88
2023/08/29 12:49:53;;;;;;;4.38;3.97;;;17.70;99.90;;;;;;10133399;29;20338;-88
2023/08/29 12:54:58;;;;;;;4.20;3.55;;;17.70;99.90;;;;;;10132884;29;20291;-88
2023/08/29 13:00:01;;;;;;;3.78;3.47;;;17.60;99.90;;;;;;10132182;29;20873;-88
2023/08/29 13:05:04;;;;;;;4.70;3.75;;;17.50;99.90;;;;;;10132922;29;20647;-88
2023/08/29 13:10:07;;;;;;;4.38;3.97;;;17.50;99.90;;;;;;10132683;29;20703;-88
2023/08/29 13:15:12;;;;;;;5.60;4.95;;;17.50;99.90;;;;;;10113878;29;20319;-90
2023/08/29 13:20:16;;;;;;;5.53;4.07;;;17.50;99.90;;;;;;10126656;29;20245;-90
2023/08/29 13:25:19;;;;;;;6.57;5.10;;;17.60;99.90;;;;;;10093220;29;20244;-88
2023/08/29 13:30:22;;;;;;;5.18;4.68;;;17.50;99.90;;;;;;10077189;29;20677;-88
2023/08/29 13:35:24;;;;;;;5.43;4.80;;;17.50;99.90;;;;;;10091269;29;20236;-88
2023/08/29 13:40:27;;;;;;;5.13;4.47;;;17.50;99.90;;;;;;10131655;29;20773;-87
2023/08/29 13:45:29;;;;;;;6.18;4.57;;;17.50;99.90;;;;;;10131296;29;20287;-87
2023/08/29 13:50:32;;;;;;;5.93;4.95;;;17.50;99.90;;;;;;10131083;29;20291;-87
2023/08/29 13:55:35;;;;;;;5.53;4.78;;;17.50;99.90;;;;;;10130583;29;20630;-88
2023/08/29 14:00:37;;;;;;;5.65;4.47;;;17.70;99.90;;;;;;10129143;29;20236;-87
2023/08/29 14:05:40;;;;;;;7.03;5.22;;;17.70;99.90;;;;;;10130082;29;20721;-87
2023/08/29 14:10:42;;;;;;;5.60;4.95;;;17.70;99.90;;;;;;10129461;29;20360;-86
2023/08/29 14:15:45;;;;;;;5.18;4.68;;;17.80;99.90;;;;;;10130369;29;20305;-86
2023/08/29 14:20:48;;;;;;;7.05;5.35;;;17.70;99.90;;;;;;10112679;29;20651;-87
2023/08/29 14:25:50;;;;;;;7.38;5.07;;;17.80;99.90;;;;;;10130217;29;20300;-88
2023/08/29 14:30:52;;;;;;;4.80;4.05;;;17.90;99.90;;;;;;10127036;29;20315;-89
2023/08/29 14:35:56;;;;;;;6.53;4.78;;;17.90;99.90;;;;;;10128720;29;20236;-87
2023/08/29 14:41:07;;;;;;;10.20;5.50;;;17.90;99.90;;;;;;10128288;29;20268;-87
2023/08/29 14:46:09;;;;;;;5.15;4.43;;;17.80;99.90;;;;;;10128781;29;20243;-87
2023/08/29 14:51:12;;;;;;;13.65;5.20;;;17.90;99.90;;;;;;10110391;29;20263;-88
2023/08/29 14:56:15;;;;;;;5.03;4.20;;;17.90;99.90;;;;;;10126769;29;20232;-86
2023/08/29 15:01:17;;;;;;;4.85;4.45;;;17.90;99.90;;;;;;10096980;29;20759;-85
2023/08/29 15:06:20;;;;;;;6.65;5.38;;;17.90;99.90;;;;;;10128316;29;20228;-85
2023/08/29 15:11:23;;;;;;;4.50;3.88;;;17.90;99.90;;;;;;10112138;29;20284;-85
2023/08/29 15:16:25;;;;;;;5.95;5.05;;;17.90;99.90;;;;;;10127732;29;20594;-87
2023/08/29 15:21:28;;;;;;;7.40;5.53;;;17.70;99.90;;;;;;10128430;29;20296;-86
2023/08/29 15:26:30;;;;;;;9.10;5.90;;;17.70;99.90;;;;;;10128807;29;20967;-85
2023/08/29 15:31:33;;;;;;;7.88;6.30;;;17.70;99.90;;;;;;9785999;29;10000660;-85
2023/08/29 15:36:36;;;;;;;7.03;5.78;;;17.70;99.90;;;;;;10126489;29;20302;-83
2023/08/29 15:41:38;;;;;;;8.95;7.32;;;17.80;99.90;;;;;;10122751;29;20704;-88
2023/08/29 15:46:41;;;;;;;9.57;6.80;;;17.80;99.90;;;;;;10128383;29;20260;-89
2023/08/29 15:51:43;;;;;;;14.38;7.70;;;17.90;99.90;;;;;;10132604;29;20724;-88
2023/08/29 15:56:46;;;;;;;7.07;6.38;;;17.80;99.90;;;;;;10110476;29;20344;-88
2023/08/29 16:01:48;;;;;;;8.43;6.15;;;17.90;99.90;;;;;;10131653;29;20307;-88
2023/08/29 16:06:51;;;;;;;6.30;5.70;;;17.90;99.90;;;;;;10131832;29;20279;-87
2023/08/29 16:11:54;;;;;;;8.60;6.93;;;17.70;99.90;;;;;;10130628;29;20260;-87
2023/08/29 16:16:57;;;;;;;10.13;7.10;;;17.70;99.90;;;;;;10114086;29;20236;-86
2023/08/29 16:22:00;;;;;;;8.13;6.15;;;17.60;99.90;;;;;;10121141;29;20240;-86
2023/08/29 16:27:03;;;;;;;9.13;7.72;;;17.50;99.90;;;;;;10116718;29;20796;-86
2023/08/29 16:32:05;;;;;;;10.18;6.88;;;17.50;99.90;;;;;;10118416;29;20277;-85
2023/08/29 16:37:08;;;;;;;8.48;7.03;;;17.50;99.90;;;;;;10115647;29;20240;-85
2023/08/29 16:42:10;;;;;;;10.75;8.18;;;17.40;99.90;;;;;;10084961;29;20348;-86
2023/08/29 16:47:13;;;;;;;13.18;8.07;;;17.40;99.90;;;;;;10131688;29;20305;-86
2023/08/29 16:52:15;;;;;;;12.52;8.85;;;17.30;99.90;;;;;;10130113;29;20340;-86
2023/08/29 16:57:18;;;;;;;12.20;8.93;;;17.30;99.90;;;;;;10129468;29;20268;-85
2023/08/29 17:02:21;;;;;;;12.50;8.73;;;17.30;99.90;;;;;;10130602;29;20232;-85
2023/08/29 17:07:24;;;;;;;14.13;9.07;;;17.20;99.90;;;;;;10128662;29;20244;-85
2023/08/29 17:12:27;;;;;;;14.95;9.27;;;17.20;99.90;;;;;;10128915;29;20260;-87
2023/08/29 17:17:29;;;;;;;14.32;9.98;;;17.10;99.90;;;;;;10130179;29;20257;-87
2023/08/29 17:22:32;;;;;;;11.40;8.93;;;17.10;99.90;;;;;;10130535;29;20247;-87
2023/08/29 17:27:34;;;;;;;11.85;9.43;;;17.10;99.90;;;;;;10129425;29;20657;-87
2023/08/29 17:32:37;;;;;;;7.15;6.13;;;17.10;99.90;;;;;;10111530;29;20279;-85
2023/08/29 17:37:40;;;;;;;14.75;9.90;;;17.10;99.90;;;;;;10129644;29;20231;-86
2023/08/29 17:42:43;;;;;;;12.40;9.77;;;17.20;99.90;;;;;;10128976;29;20326;-86
2023/08/29 17:47:46;;;;;;;12.57;10.65;;;17.10;99.90;;;;;;10129498;29;20628;-86
2023/08/29 17:52:49;;;;;;;10.73;8.85;;;17.10;99.90;;;;;;10112430;29;20256;-86
2023/08/29 17:57:51;;;;;;;11.57;10.38;;;17.10;99.90;;;;;;10106614;29;20293;-83
2023/08/29 18:02:54;;;;;;;12.63;9.80;;;17.00;99.90;;;;;;10124589;29;20236;-86
2023/08/29 18:07:57;;;;;;;12.80;10.10;;;17.00;99.90;;;;;;10110565;29;20696;-84
2023/08/29 18:12:59;;;;;;;13.05;9.73;;;16.90;99.90;;;;;;10126647;29;20307;-85
2023/08/29 18:18:21;;;;;;;15.02;10.65;;;16.90;99.90;;;;;;10108169;29;20236;-86
2023/08/29 18:23:25;;;;;;;14.35;10.35;;;17.10;99.90;;;;;;10112173;29;20748;-85
2023/08/29 18:28:28;;;;;;;16.85;11.45;;;17.10;99.90;;;;;;10111927;29;20652;-85
2023/08/29 18:33:33;;;;;;;15.23;11.23;;;17.10;99.90;;;;;;10125802;29;20347;-83
2023/08/29 18:38:36;;;;;;;16.58;12.95;;;17.00;99.90;;;;;;10097598;29;20292;-85
2023/08/29 18:43:38;;;;;;;16.33;12.13;;;17.00;99.90;;;;;;10129208;29;20264;-85
2023/08/29 18:48:41;;;;;;;13.23;11.77;;;16.90;99.90;;;;;;10124186;29;20304;-85
2023/08/29 18:53:43;;;;;;;16.98;12.82;;;16.90;99.90;;;;;;10126921;29;20253;-86
2023/08/29 18:58:46;;;;;;;12.73;10.77;;;16.80;99.90;;;;;;10110948;29;20260;-86
2023/08/29 19:03:49;;;;;;;16.35;12.57;;;16.80;99.90;;;;;;10113540;29;20255;-86
2023/08/29 19:08:52;;;;;;;19.75;13.07;;;16.80;99.90;;;;;;10128000;29;20318;-84
2023/08/29 19:13:54;;;;;;;21.98;13.48;;;16.80;99.90;;;;;;10128750;29;20272;-87
2023/08/29 19:18:57;;;;;;;17.23;13.75;;;16.80;99.90;;;;;;10112171;29;20295;-85
2023/08/29 19:24:00;;;;;;;14.35;12.55;;;16.70;99.90;;;;;;10126898;29;20291;-85
2023/08/29 19:29:03;;;;;;;15.20;12.55;;;16.70;99.90;;;;;;10127383;29;20264;-84
2023/08/29 19:34:05;;;;;;;18.15;12.63;;;16.70;99.90;;;;;;10128552;29;20232;-84
2023/08/29 19:39:10;;;;;;;20.75;13.75;;;16.70;99.90;;;;;;10127931;29;20231;-84
2023/08/29 19:44:21;;;;;;;17.38;14.02;;;16.70;99.90;;;;;;10127966;29;20271;-84
2023/08/29 19:49:24;;;;;;;17.17;13.98;;;16.80;99.90;;;;;;10127735;29;20268;-84
2023/08/29 19:54:27;;;;;;;16.88;13.68;;;16.80;99.90;;;;;;10128090;29;20240;-85
2023/08/29 19:59:31;;;;;;;19.98;13.88;;;16.70;99.90;;;;;;10103324;29;20622;-87
2023/08/29 20:04:34;;;;;;;17.35;13.30;;;16.70;99.90;;;;;;10127351;29;20311;-87
2023/08/29 20:09:36;;;;;;;18.58;14.45;;;16.70;99.90;;;;;;10126637;29;20267;-87
2023/08/29 20:14:40;;;;;;;17.10;13.15;;;16.60;99.90;;;;;;10127080;29;20284;-87
2023/08/29 20:19:43;;;;;;;12.65;9.95;;;16.60;99.90;;;;;;10110651;29;20299;-87
2023/08/29 20:24:48;;;;;;;11.90;9.50;;;16.50;99.90;;;;;;10126989;29;20315;-87
2023/08/29 20:29:51;;;;;;;12.32;9.90;;;16.50;99.90;;;;;;10126508;29;20730;-85
2023/08/29 20:34:54;;;;;;;12.40;9.48;;;16.50;99.90;;;;;;10115075;29;20235;-87
2023/08/29 20:39:56;;;;;;;14.77;9.13;;;16.40;99.90;;;;;;10117520;29;20815;-86
2023/08/29 20:44:59;;;;;;;11.68;9.85;;;16.50;99.90;;;;;;10133361;29;20228;-86
2023/08/29 20:50:02;;;;;;;12.52;9.82;;;16.50;99.90;;;;;;10117719;29;20260;-86
2023/08/29 20:55:05;;;;;;;13.82;9.65;;;16.50;99.90;;;;;;10123946;29;20664;-85
2023/08/29 21:00:12;;;;;;;13.88;10.00;;;16.40;99.90;;;;;;10123452;29;20244;-87
2023/08/29 21:05:15;;;;;;;13.10;9.52;;;16.40;99.90;;;;;;10133448;29;20247;-88
2023/08/29 21:10:17;;;;;;;12.13;9.60;;;16.40;99.90;;;;;;10123890;29;20252;-87
2023/08/29 21:15:20;;;;;;;12.15;9.10;;;16.30;99.90;;;;;;10123472;29;20308;-86
2023/08/29 21:20:22;;;;;;;9.80;8.68;;;16.20;99.90;;;;;;10120831;29;20261;-87
2023/08/29 21:25:25;;;;;;;10.38;8.50;;;16.20;99.90;;;;;;10132424;29;20236;-86
2023/08/29 21:30:28;;;;;;;9.40;7.78;;;16.20;99.90;;;;;;10132864;29;20247;-86
2023/08/29 21:35:30;;;;;;;10.60;8.13;;;16.30;99.90;;;;;;10124698;29;20344;-87
2023/08/29 21:40:37;;;;;;;9.77;7.97;;;16.20;99.90;;;;;;10112945;29;20263;-87
2023/08/29 21:45:40;;;;;;;9.70;7.70;;;16.20;99.90;;;;;;10130746;29;20240;-87
2023/08/29 21:50:44;;;;;;;8.45;7.05;;;16.20;99.90;;;;;;10113157;29;20323;-87
2023/08/29 21:55:46;;;;;;;8.70;7.90;;;16.30;99.90;;;;;;10127876;29;20228;-87
2023/08/29 22:00:53;;;;;;;11.98;7.28;;;16.30;99.90;;;;;;10106998;29;20307;-87
2023/08/29 22:05:56;;;;;;;8.02;6.78;;;16.30;99.90;;;;;;10131096;29;20298;-86
2023/08/29 22:10:59;;;;;;;8.82;6.57;;;16.20;99.90;;;;;;10112705;29;20337;-87
2023/08/29 22:16:04;;;;;;;10.73;7.60;;;16.30;99.90;;;;;;10123002;29;20236;-87
2023/08/29 22:21:08;;;;;;;6.28;5.68;;;16.20;99.90;;;;;;10115769;29;20288;-87
2023/08/29 22:26:12;;;;;;;7.57;6.30;;;16.30;99.90;;;;;;10127723;29;20243;-87
2023/08/29 22:31:14;;;;;;;8.15;6.45;;;16.30;99.90;;;;;;10128635;29;20252;-87
2023/08/29 22:36:17;;;;;;;7.22;5.47;;;16.30;99.90;;;;;;10128155;29;20239;-87
2023/08/29 22:41:20;;;;;;;8.02;6.15;;;16.20;99.90;;;;;;10129166;29;20272;-87
2023/08/29 22:46:35;;;;;;;5.95;4.65;;;16.20;99.90;;;;;;10129538;29;20400;-87
2023/08/29 22:51:38;;;;;;;8.40;4.50;;;16.20;99.90;;;;;;10112157;29;20480;-87
2023/08/29 22:56:40;;;;;;;6.45;3.53;;;16.20;99.90;;;;;;10126283;29;20240;-87
2023/08/29 23:01:43;;;;;;;6.03;4.10;;;16.20;99.90;;;;;;10111599;29;20244;-86
2023/08/29 23:06:46;;;;;;;4.68;3.58;;;16.30;99.90;;;;;;10127915;29;20656;-87
2023/08/29 23:11:49;;;;;;;5.30;2.72;;;16.30;99.90;;;;;;10125577;29;20259;-86
2023/08/29 23:16:52;;;;;;;3.35;2.70;;;16.40;99.90;;;;;;10127827;29;20311;-87
2023/08/29 23:21:54;;;;;;;3.03;2.72;;;16.30;99.90;;;;;;10111906;29;20232;-87
2023/08/29 23:26:57;;;;;;;8.35;4.90;;;16.20;99.90;;;;;;10126654;29;20236;-86
2023/08/29 23:32:00;;;;;;;6.43;5.03;;;16.20;99.90;;;;;;10125138;29;20303;-87
2023/08/29 23:37:02;;;;;;;4.78;3.53;;;16.20;99.90;;;;;;10111166;29;20223;-86
2023/08/29 23:42:06;;;;;;;3.90;2.97;;;16.10;99.90;;;;;;10124616;29;20724;-87
2023/08/29 23:47:09;;;;;;;7.18;2.88;;;16.10;99.90;;;;;;10127553;29;20244;-86
2023/08/29 23:52:11;;;;;;;3.30;2.90;;;16.20;99.90;;;;;;10125372;29;20343;-87
2023/08/29 23:57:14;;;;;;;3.40;2.65;;;16.10;99.90;;;;;;10125805;29;20237;-87
